createdAt,value
2022-12-03T00:01:31.565Z,75.17
2022-12-03T00:04:24.130Z,75.58
2022-12-03T00:07:16.870Z,75.54
2022-12-03T00:10:08.058Z,75.38
2022-12-03T00:13:04.306Z,75.85
2022-12-03T00:15:57.708Z,75.49
2022-12-03T00:18:49.929Z,75.63
2022-12-03T00:21:39.711Z,75.32
2022-12-03T00:24:30.080Z,75.52
2022-12-03T00:27:23.722Z,75.56
2022-12-03T00:30:15.996Z,75.28
2022-12-03T00:33:05.959Z,75.69
2022-12-03T00:35:55.605Z,75.61
2022-12-03T00:41:59.981Z,75.95
2022-12-03T00:44:49.902Z,75.32
2022-12-03T00:47:42.611Z,75.16
2022-12-03T00:50:38.951Z,75.57
2022-12-03T00:53:30.776Z,75.77
2022-12-03T00:56:38.832Z,75.37
2022-12-03T00:59:46.107Z,75.68
2022-12-03T01:02:48.338Z,75.41
2022-12-03T01:05:41.822Z,75.48
2022-12-03T01:08:28.889Z,75.58
2022-12-03T01:11:37.865Z,75.36
2022-12-03T01:14:35.142Z,75.39
2022-12-03T01:17:32.364Z,75.58
2022-12-03T01:20:19.464Z,75.32
2022-12-03T01:23:16.873Z,75.59
2022-12-03T01:26:04.280Z,75.56
2022-12-03T01:28:52.219Z,75.64
2022-12-03T01:32:05.067Z,75.70
2022-12-03T01:34:56.005Z,75.57
2022-12-03T01:37:43.274Z,75.67
2022-12-03T01:40:30.308Z,75.48
2022-12-03T01:43:22.671Z,75.46
2022-12-03T01:46:12.526Z,75.51
2022-12-03T01:48:59.498Z,75.50
2022-12-03T01:51:50.038Z,75.19
2022-12-03T01:54:43.086Z,75.73
2022-12-03T01:58:07.959Z,75.29
2022-12-03T02:00:54.976Z,75.32
2022-12-03T02:03:46.042Z,75.66
2022-12-03T02:06:34.534Z,75.52
2022-12-03T02:09:26.090Z,75.46
2022-12-03T02:12:15.246Z,75.62
2022-12-03T02:15:11.505Z,75.78
2022-12-03T02:17:58.475Z,75.58
2022-12-03T02:20:54.261Z,75.52
2022-12-03T02:23:44.059Z,75.70
2022-12-03T02:26:30.942Z,75.52
2022-12-03T02:29:18.004Z,75.65
2022-12-03T02:32:10.417Z,75.44
2022-12-03T02:35:00.498Z,75.47
2022-12-03T02:37:59.417Z,75.70
2022-12-03T02:40:58.271Z,75.88
2022-12-03T02:43:45.201Z,75.88
2022-12-03T02:46:36.630Z,75.43
2022-12-03T02:49:23.614Z,75.31
2022-12-03T02:52:10.793Z,75.55
2022-12-03T02:55:05.625Z,75.48
2022-12-03T02:57:52.764Z,75.67
2022-12-03T03:00:40.057Z,75.49
2022-12-03T03:03:30.576Z,75.43
2022-12-03T03:06:23.088Z,75.53
2022-12-03T03:09:14.678Z,75.56
2022-12-03T03:12:08.083Z,75.60
2022-12-03T03:14:58.238Z,75.49
2022-12-03T03:17:45.415Z,75.73
2022-12-03T03:20:38.517Z,75.69
2022-12-03T03:23:26.792Z,75.59
2022-12-03T03:26:16.397Z,75.36
2022-12-03T03:29:04.098Z,75.40
2022-12-03T03:31:54.280Z,75.37
2022-12-03T03:34:44.378Z,75.68
2022-12-03T03:37:38.803Z,75.57
2022-12-03T03:40:39.612Z,75.80
2022-12-03T03:43:28.066Z,75.49
2022-12-03T03:46:26.670Z,75.37
2022-12-03T03:49:22.046Z,75.69
2022-12-03T03:52:12.859Z,76.02
2022-12-03T03:55:08.565Z,75.58
2022-12-03T03:57:58.936Z,75.62
2022-12-03T04:00:51.286Z,75.36
2022-12-03T04:03:38.861Z,75.41
2022-12-03T04:06:27.491Z,75.58
2022-12-03T04:09:20.818Z,75.63
2022-12-03T04:12:28.762Z,75.65
2022-12-03T04:15:18.784Z,75.50
2022-12-03T04:18:24.282Z,75.56
2022-12-03T04:21:37.293Z,75.40
2022-12-03T04:24:24.238Z,75.58
2022-12-03T04:27:31.807Z,75.67
2022-12-03T04:30:18.550Z,75.74
2022-12-03T04:33:24.035Z,75.73
2022-12-03T04:36:10.812Z,75.75
2022-12-03T04:38:57.624Z,75.45
2022-12-03T04:41:44.388Z,75.69
2022-12-03T04:44:36.429Z,75.48
2022-12-03T04:47:23.431Z,75.83
2022-12-03T04:50:10.754Z,75.63
2022-12-03T04:52:57.524Z,75.82
2022-12-03T04:55:44.347Z,75.80
2022-12-03T04:58:34.060Z,75.56
2022-12-03T05:01:21.187Z,75.27
2022-12-03T05:04:07.967Z,75.55
2022-12-03T05:06:56.274Z,75.55
2022-12-03T05:09:43.070Z,75.30
2022-12-03T05:12:29.863Z,75.50
2022-12-03T05:15:18.668Z,75.41
2022-12-03T05:18:08.286Z,75.41
2022-12-03T05:20:55.052Z,75.16
2022-12-03T05:23:42.425Z,75.40
2022-12-03T05:26:29.263Z,75.50
2022-12-03T05:29:16.576Z,75.56
2022-12-03T05:32:05.705Z,75.23
2022-12-03T05:34:52.963Z,75.57
2022-12-03T05:37:39.974Z,75.47
2022-12-03T05:40:26.729Z,75.64
2022-12-03T05:43:16.238Z,75.53
2022-12-03T05:46:03.053Z,75.39
2022-12-03T05:48:49.858Z,75.40
2022-12-03T05:51:36.600Z,75.44
2022-12-03T05:54:23.446Z,75.44
2022-12-03T05:57:10.357Z,75.56
2022-12-03T06:00:00.135Z,75.34
2022-12-03T06:02:47.133Z,75.22
2022-12-03T06:05:34.392Z,75.21
2022-12-03T06:08:21.179Z,75.45
2022-12-03T06:11:08.010Z,75.55
2022-12-03T06:13:54.764Z,75.48
2022-12-03T06:16:47.707Z,75.13
2022-12-03T06:19:34.857Z,75.67
2022-12-03T06:22:27.494Z,75.65
2022-12-03T06:25:18.075Z,75.56
2022-12-03T06:28:06.228Z,75.02
2022-12-03T06:30:56.565Z,75.50
2022-12-03T06:33:43.835Z,75.01
2022-12-03T06:36:31.042Z,75.25
2022-12-03T06:39:19.403Z,75.34
2022-12-03T06:42:06.752Z,75.29
2022-12-03T06:44:53.765Z,75.14
2022-12-03T06:47:40.747Z,75.21
2022-12-03T06:50:32.870Z,75.66
2022-12-03T06:53:20.806Z,75.31
2022-12-03T06:56:11.039Z,75.21
2022-12-03T06:59:04.284Z,75.26
2022-12-03T07:01:54.487Z,75.58
2022-12-03T07:04:49.744Z,75.44
2022-12-03T07:07:44.496Z,75.37
2022-12-03T07:10:39.241Z,75.27
2022-12-03T07:13:26.020Z,75.29
2022-12-03T07:16:12.889Z,75.64
2022-12-03T07:18:59.685Z,75.29
2022-12-03T07:21:48.645Z,75.44
2022-12-03T07:24:36.608Z,75.31
2022-12-03T07:27:27.510Z,75.51
2022-12-03T07:30:57.988Z,75.51
2022-12-03T07:33:53.550Z,75.37
2022-12-03T07:36:45.667Z,75.77
2022-12-03T07:39:36.749Z,75.39
2022-12-03T07:42:41.909Z,75.13
2022-12-03T07:45:32.855Z,75.84
2022-12-03T07:48:35.383Z,75.64
2022-12-03T07:51:33.629Z,75.47
2022-12-03T07:54:21.539Z,75.37
2022-12-03T07:57:42.984Z,75.55
2022-12-03T08:00:42.197Z,75.42
2022-12-03T08:03:29.324Z,75.30
2022-12-03T08:06:25.104Z,75.37
2022-12-03T08:09:17.733Z,75.44
2022-12-03T08:12:36.201Z,75.63
2022-12-03T08:15:41.234Z,75.76
2022-12-03T08:18:59.441Z,75.66
2022-12-03T08:21:57.971Z,75.34
2022-12-03T08:32:17.550Z,75.36
2022-12-03T08:35:39.823Z,75.55
2022-12-03T08:41:57.450Z,75.70
2022-12-03T08:44:54.443Z,75.94
2022-12-03T08:47:44.626Z,75.46
2022-12-03T08:54:12.059Z,75.21
2022-12-03T09:03:08.744Z,75.64
2022-12-03T09:14:05.004Z,75.96
2022-12-03T09:17:27.674Z,75.73
2022-12-03T09:20:29.803Z,75.79
2022-12-03T09:24:03.036Z,75.94
2022-12-03T09:33:33.093Z,75.89
2022-12-03T09:37:34.225Z,75.97
2022-12-03T09:41:32.238Z,75.81
2022-12-03T09:48:18.945Z,75.90
2022-12-03T09:51:22.834Z,75.96
2022-12-03T09:58:08.082Z,75.99
2022-12-03T10:01:16.442Z,75.98
2022-12-03T10:13:13.919Z,75.63
2022-12-03T10:16:54.458Z,76.01
2022-12-03T11:12:42.582Z,76.40
2022-12-03T11:32:18.262Z,76.61
2022-12-03T11:48:22.013Z,76.33
2022-12-03T11:54:06.275Z,76.50
2022-12-03T11:58:27.044Z,76.23
2022-12-03T12:22:02.643Z,76.40
2022-12-03T12:42:44.685Z,76.58
2022-12-03T12:50:32.182Z,76.07
2022-12-03T13:20:59.268Z,76.04
2022-12-03T13:29:04.067Z,75.82
2022-12-03T13:47:48.438Z,75.91
2022-12-03T13:52:23.033Z,75.84
2022-12-03T14:14:28.848Z,75.50
2022-12-03T14:32:34.701Z,75.73
2022-12-03T14:40:22.607Z,75.51
2022-12-03T14:53:33.598Z,75.69
2022-12-03T14:57:13.223Z,75.52
2022-12-03T15:00:51.665Z,75.40
2022-12-03T15:04:23.354Z,75.35
2022-12-03T15:07:44.146Z,75.22
2022-12-03T15:11:16.299Z,75.34
2022-12-03T15:15:15.335Z,75.55
2022-12-03T15:18:34.186Z,75.52
2022-12-03T15:25:39.691Z,75.31
2022-12-03T15:36:23.631Z,75.49
2022-12-03T15:39:26.996Z,75.21
2022-12-03T15:49:19.526Z,75.52
2022-12-03T15:52:28.112Z,75.63
2022-12-03T15:55:40.933Z,75.41
2022-12-03T15:58:35.792Z,75.42
2022-12-03T16:01:26.010Z,75.31
2022-12-03T16:04:31.428Z,75.59
2022-12-03T16:07:35.145Z,75.55
2022-12-03T16:13:50.653Z,75.47
2022-12-03T16:16:47.804Z,75.10
2022-12-03T16:19:41.675Z,75.12
2022-12-03T16:22:28.610Z,75.52
2022-12-03T16:25:15.431Z,75.32
2022-12-03T16:28:02.265Z,75.30
2022-12-03T16:30:49.050Z,75.43
2022-12-03T16:33:35.892Z,75.25
2022-12-03T16:36:22.706Z,75.33
2022-12-03T16:39:09.464Z,75.31
2022-12-03T16:41:59.044Z,75.47
2022-12-03T16:45:14.848Z,75.22
2022-12-03T16:48:01.875Z,75.33
2022-12-03T16:50:48.649Z,75.26
2022-12-03T16:53:35.446Z,75.10
2022-12-03T16:56:22.331Z,75.44
2022-12-03T16:59:09.237Z,75.40
2022-12-03T17:01:56.129Z,75.14
2022-12-03T17:04:43.110Z,75.34
2022-12-03T17:07:30.055Z,75.30
2022-12-03T17:10:20.904Z,74.83
2022-12-03T17:13:09.718Z,75.44
2022-12-03T17:15:57.020Z,75.47
2022-12-03T17:18:43.970Z,75.38
2022-12-03T17:21:35.014Z,74.95
2022-12-03T17:24:24.495Z,75.40
2022-12-03T17:27:12.852Z,75.13
2022-12-03T17:30:04.117Z,75.30
2022-12-03T17:32:54.312Z,75.12
2022-12-03T17:35:41.353Z,74.86
2022-12-03T17:38:35.519Z,75.29
2022-12-03T17:41:26.232Z,75.20
2022-12-03T17:44:17.773Z,75.13
2022-12-03T17:47:06.453Z,74.97
2022-12-03T17:49:53.605Z,75.12
2022-12-03T17:52:40.645Z,75.12
2022-12-03T17:55:37.011Z,75.36
2022-12-03T17:58:37.277Z,75.14
2022-12-03T18:01:32.150Z,75.00
2022-12-03T18:04:21.486Z,75.16
2022-12-03T18:07:08.390Z,75.16
2022-12-03T18:09:55.593Z,75.27
2022-12-03T18:12:42.539Z,75.29
2022-12-03T18:15:30.052Z,75.04
2022-12-03T18:18:16.897Z,75.29
2022-12-03T18:21:04.273Z,75.10
2022-12-03T18:23:51.132Z,75.15
2022-12-03T18:26:42.629Z,75.07
2022-12-03T18:29:30.950Z,75.20
2022-12-03T18:32:34.496Z,75.38
2022-12-03T18:35:21.546Z,75.18
2022-12-03T18:38:30.569Z,75.38
2022-12-03T18:41:29.424Z,75.18
2022-12-03T18:44:22.536Z,75.06
2022-12-03T18:47:13.816Z,75.32
2022-12-03T18:50:06.406Z,75.08
2022-12-03T18:52:59.760Z,75.03
2022-12-03T18:55:47.124Z,75.35
2022-12-03T18:58:34.286Z,75.17
2022-12-03T19:01:27.468Z,75.06
2022-12-03T19:04:14.851Z,75.15
2022-12-03T19:07:04.007Z,75.35
2022-12-03T19:09:51.333Z,74.91
2022-12-03T19:12:44.480Z,74.72
2022-12-03T19:15:40.737Z,75.32
2022-12-03T19:18:44.252Z,75.12
2022-12-03T19:21:46.907Z,75.10
2022-12-03T19:24:34.099Z,75.10
2022-12-03T19:27:31.285Z,75.37
2022-12-03T19:30:28.545Z,75.32
2022-12-03T19:33:28.839Z,75.35
2022-12-03T19:36:31.451Z,74.98
2022-12-03T19:39:24.514Z,75.20
2022-12-03T19:42:15.653Z,74.97
2022-12-03T19:45:02.603Z,74.84
2022-12-03T19:47:52.255Z,75.10
2022-12-03T19:50:39.389Z,75.14
2022-12-03T19:53:31.586Z,75.20
2022-12-03T19:56:19.895Z,75.22
2022-12-03T19:59:07.768Z,75.33
2022-12-03T20:01:57.625Z,75.20
2022-12-03T20:04:46.546Z,75.18
2022-12-03T20:07:36.493Z,75.14
2022-12-03T20:10:26.172Z,75.21
2022-12-03T20:13:15.767Z,74.91
2022-12-03T20:16:08.600Z,74.97
2022-12-03T20:19:06.714Z,74.91
2022-12-03T20:24:58.653Z,75.33
2022-12-03T20:27:45.726Z,75.11
2022-12-03T20:30:35.883Z,75.02
2022-12-03T20:33:27.794Z,74.77
2022-12-03T20:36:17.799Z,75.32
2022-12-03T20:39:12.117Z,74.82
2022-12-03T20:41:59.256Z,75.10
2022-12-03T20:44:46.432Z,74.79
2022-12-03T20:47:33.613Z,75.17
2022-12-03T20:50:26.467Z,75.05
2022-12-03T20:53:26.411Z,75.17
2022-12-03T20:56:22.192Z,74.83
2022-12-03T20:59:15.487Z,75.17
2022-12-03T21:02:06.561Z,75.11
2022-12-03T21:05:02.324Z,75.17
2022-12-03T21:07:53.079Z,74.88
2022-12-03T21:10:50.873Z,75.39
2022-12-03T21:13:41.421Z,75.13
2022-12-03T21:16:52.507Z,75.50
2022-12-03T21:19:46.292Z,75.01
2022-12-03T21:22:33.623Z,75.01
2022-12-03T21:25:24.826Z,75.08
2022-12-03T21:28:15.029Z,75.23
2022-12-03T21:31:11.380Z,75.27
2022-12-03T21:34:02.907Z,74.93
2022-12-03T21:36:58.233Z,75.35
2022-12-03T21:39:47.734Z,74.81
2022-12-03T21:42:39.481Z,74.79
2022-12-03T21:45:29.141Z,75.14
2022-12-03T21:48:19.407Z,75.11
2022-12-03T21:51:11.447Z,75.37
2022-12-03T21:53:58.590Z,74.89
2022-12-03T21:56:52.365Z,75.11
2022-12-03T21:59:40.779Z,75.02
2022-12-03T22:02:35.949Z,75.09
2022-12-03T22:05:23.665Z,74.93
2022-12-03T22:08:11.109Z,75.06
2022-12-03T22:10:58.183Z,75.26
2022-12-03T22:13:50.482Z,74.92
2022-12-03T22:16:40.276Z,75.02
2022-12-03T22:19:31.854Z,74.85
2022-12-03T22:22:19.261Z,74.78
2022-12-03T22:25:10.260Z,75.03
2022-12-03T22:27:57.777Z,75.18
2022-12-03T22:30:47.904Z,75.26
2022-12-03T22:33:38.361Z,75.18
2022-12-03T22:36:28.381Z,75.18
2022-12-03T22:39:20.669Z,75.35
2022-12-03T22:42:07.705Z,75.03
2022-12-03T22:44:57.375Z,75.42
2022-12-03T22:47:44.265Z,74.87
2022-12-03T22:50:37.088Z,74.70
2022-12-03T22:53:27.172Z,74.89
2022-12-03T22:56:14.355Z,74.87
2022-12-03T22:59:01.749Z,75.20
2022-12-03T23:01:49.070Z,75.04
2022-12-03T23:04:36.743Z,74.79
2022-12-03T23:07:28.136Z,74.96
2022-12-03T23:10:15.343Z,74.79
2022-12-03T23:13:02.666Z,74.81
2022-12-03T23:15:58.527Z,74.96
2022-12-03T23:18:47.990Z,74.73
2022-12-03T23:21:40.183Z,74.73
2022-12-03T23:24:36.149Z,74.89
2022-12-03T23:27:27.121Z,75.08
2022-12-03T23:30:15.346Z,74.79
2022-12-03T23:33:02.610Z,75.12
2022-12-03T23:35:49.518Z,74.88
2022-12-03T23:38:47.277Z,74.88
2022-12-03T23:41:36.373Z,75.03
2022-12-03T23:44:23.306Z,75.19
2022-12-03T23:47:12.405Z,75.04
2022-12-03T23:49:59.204Z,74.97
2022-12-03T23:52:51.763Z,75.47
2022-12-03T23:55:40.049Z,75.01
2022-12-03T23:58:28.866Z,75.17
